sensor_id;sensor_type;location;lat;lon;timestamp;P1;durP1;ratioP1;P2;durP2;ratioP2
6209;SDS011;3138;52.550;13.148;2022-11-09T00:01:22;3.63;;;2.47;;
6209;SDS011;3138;52.550;13.148;2022-11-09T00:03:52;9.17;;;2.67;;
6209;SDS011;3138;52.550;13.148;2022-11-09T00:06:20;3.20;;;2.40;;
6209;SDS011;3138;52.550;13.148;2022-11-09T00:08:46;8.23;;;2.90;;
6209;SDS011;3138;52.550;13.148;2022-11-09T00:11:13;9.23;;;2.27;;
6209;SDS011;3138;52.550;13.148;2022-11-09T00:13:42;13.83;;;5.10;;
6209;SDS011;3138;52.550;13.148;2022-11-09T00:16:10;3.07;;;2.60;;
6209;SDS011;3138;52.550;13.148;2022-11-09T00:18:38;6.43;;;2.53;;
6209;SDS011;3138;52.550;13.148;2022-11-09T00:21:05;5.83;;;2.53;;
6209;SDS011;3138;52.550;13.148;2022-11-09T00:23:32;3.70;;;2.70;;
6209;SDS011;3138;52.550;13.148;2022-11-09T00:25:59;6.33;;;2.53;;
6209;SDS011;3138;52.550;13.148;2022-11-09T00:28:26;2.83;;;2.60;;
6209;SDS011;3138;52.550;13.148;2022-11-09T00:30:58;8.50;;;3.37;;
6209;SDS011;3138;52.550;13.148;2022-11-09T00:33:25;7.50;;;3.30;;
6209;SDS011;3138;52.550;13.148;2022-11-09T00:35:52;2.60;;;2.40;;
6209;SDS011;3138;52.550;13.148;2022-11-09T00:38:19;7.60;;;3.27;;
6209;SDS011;3138;52.550;13.148;2022-11-09T00:40:46;8.20;;;2.10;;
6209;SDS011;3138;52.550;13.148;2022-11-09T00:43:13;3.37;;;2.50;;
6209;SDS011;3138;52.550;13.148;2022-11-09T00:45:40;4.90;;;2.97;;
6209;SDS011;3138;52.550;13.148;2022-11-09T00:48:09;6.40;;;2.23;;
6209;SDS011;3138;52.550;13.148;2022-11-09T00:50:35;3.93;;;2.97;;
6209;SDS011;3138;52.550;13.148;2022-11-09T00:53:02;3.93;;;3.03;;
6209;SDS011;3138;52.550;13.148;2022-11-09T00:55:29;2.77;;;2.13;;
6209;SDS011;3138;52.550;13.148;2022-11-09T00:57:55;11.57;;;2.10;;
6209;SDS011;3138;52.550;13.148;2022-11-09T01:00:22;4.77;;;1.83;;
6209;SDS011;3138;52.550;13.148;2022-11-09T01:02:49;4.40;;;2.87;;
6209;SDS011;3138;52.550;13.148;2022-11-09T01:05:18;2.23;;;2.10;;
6209;SDS011;3138;52.550;13.148;2022-11-09T01:07:44;4.10;;;2.70;;
6209;SDS011;3138;52.550;13.148;2022-11-09T01:10:11;13.93;;;2.50;;
6209;SDS011;3138;52.550;13.148;2022-11-09T01:12:38;5.63;;;3.10;;
6209;SDS011;3138;52.550;13.148;2022-11-09T01:15:05;4.00;;;2.30;;
6209;SDS011;3138;52.550;13.148;2022-11-09T01:17:32;2.93;;;2.70;;
6209;SDS011;3138;52.550;13.148;2022-11-09T01:19:59;6.23;;;2.50;;
6209;SDS011;3138;52.550;13.148;2022-11-09T01:22:27;4.40;;;2.80;;
6209;SDS011;3138;52.550;13.148;2022-11-09T01:24:53;3.33;;;2.47;;
6209;SDS011;3138;52.550;13.148;2022-11-09T01:27:20;12.07;;;3.20;;
6209;SDS011;3138;52.550;13.148;2022-11-09T01:29:47;2.97;;;2.27;;
6209;SDS011;3138;52.550;13.148;2022-11-09T01:32:13;6.77;;;2.63;;
6209;SDS011;3138;52.550;13.148;2022-11-09T01:34:40;10.10;;;3.47;;
6209;SDS011;3138;52.550;13.148;2022-11-09T01:37:07;5.07;;;2.90;;
6209;SDS011;3138;52.550;13.148;2022-11-09T01:39:35;2.70;;;2.00;;
6209;SDS011;3138;52.550;13.148;2022-11-09T01:42:04;7.77;;;3.27;;
6209;SDS011;3138;52.550;13.148;2022-11-09T01:44:31;3.70;;;2.30;;
6209;SDS011;3138;52.550;13.148;2022-11-09T01:47:00;4.50;;;2.40;;
6209;SDS011;3138;52.550;13.148;2022-11-09T01:49:33;10.73;;;2.70;;
6209;SDS011;3138;52.550;13.148;2022-11-09T01:52:05;4.10;;;3.30;;
6209;SDS011;3138;52.550;13.148;2022-11-09T01:54:37;4.73;;;2.40;;
6209;SDS011;3138;52.550;13.148;2022-11-09T01:57:07;2.77;;;2.53;;
6209;SDS011;3138;52.550;13.148;2022-11-09T01:59:39;8.83;;;2.93;;
6209;SDS011;3138;52.550;13.148;2022-11-09T02:02:08;3.53;;;3.23;;
6209;SDS011;3138;52.550;13.148;2022-11-09T02:04:37;2.60;;;2.40;;
6209;SDS011;3138;52.550;13.148;2022-11-09T02:07:08;13.93;;;3.83;;
6209;SDS011;3138;52.550;13.148;2022-11-09T02:09:37;9.43;;;3.30;;
6209;SDS011;3138;52.550;13.148;2022-11-09T02:12:08;3.00;;;2.50;;
6209;SDS011;3138;52.550;13.148;2022-11-09T02:14:36;5.47;;;2.97;;
6209;SDS011;3138;52.550;13.148;2022-11-09T02:17:03;3.63;;;3.33;;
6209;SDS011;3138;52.550;13.148;2022-11-09T02:19:31;5.30;;;3.20;;
6209;SDS011;3138;52.550;13.148;2022-11-09T02:21:59;7.63;;;2.93;;
6209;SDS011;3138;52.550;13.148;2022-11-09T02:24:27;2.93;;;2.63;;
6209;SDS011;3138;52.550;13.148;2022-11-09T02:26:54;3.10;;;2.80;;
6209;SDS011;3138;52.550;13.148;2022-11-09T02:29:22;5.73;;;3.40;;
6209;SDS011;3138;52.550;13.148;2022-11-09T02:31:54;6.70;;;3.13;;
6209;SDS011;3138;52.550;13.148;2022-11-09T02:34:24;3.37;;;3.10;;
6209;SDS011;3138;52.550;13.148;2022-11-09T02:36:51;5.53;;;2.77;;
6209;SDS011;3138;52.550;13.148;2022-11-09T02:39:19;2.10;;;2.00;;
6209;SDS011;3138;52.550;13.148;2022-11-09T02:41:49;4.30;;;2.83;;
6209;SDS011;3138;52.550;13.148;2022-11-09T02:44:18;2.93;;;2.70;;
6209;SDS011;3138;52.550;13.148;2022-11-09T02:46:45;5.23;;;2.87;;
6209;SDS011;3138;52.550;13.148;2022-11-09T02:49:12;4.93;;;3.20;;
6209;SDS011;3138;52.550;13.148;2022-11-09T02:51:39;6.33;;;2.83;;
6209;SDS011;3138;52.550;13.148;2022-11-09T02:54:05;3.30;;;2.83;;
6209;SDS011;3138;52.550;13.148;2022-11-09T02:56:33;4.53;;;2.50;;
6209;SDS011;3138;52.550;13.148;2022-11-09T02:59:00;2.80;;;2.50;;
6209;SDS011;3138;52.550;13.148;2022-11-09T03:01:28;3.13;;;2.67;;
6209;SDS011;3138;52.550;13.148;2022-11-09T03:03:54;2.80;;;2.60;;
6209;SDS011;3138;52.550;13.148;2022-11-09T03:06:21;4.73;;;3.20;;
6209;SDS011;3138;52.550;13.148;2022-11-09T03:08:58;2.53;;;2.23;;
6209;SDS011;3138;52.550;13.148;2022-11-09T03:11:25;3.50;;;2.67;;
6209;SDS011;3138;52.550;13.148;2022-11-09T03:13:53;6.47;;;3.37;;
6209;SDS011;3138;52.550;13.148;2022-11-09T03:16:20;3.43;;;2.87;;
6209;SDS011;3138;52.550;13.148;2022-11-09T03:18:47;3.87;;;2.97;;
6209;SDS011;3138;52.550;13.148;2022-11-09T03:21:13;2.30;;;2.00;;
6209;SDS011;3138;52.550;13.148;2022-11-09T03:23:40;4.83;;;2.70;;
6209;SDS011;3138;52.550;13.148;2022-11-09T03:26:07;5.40;;;2.60;;
6209;SDS011;3138;52.550;13.148;2022-11-09T03:28:33;11.43;;;3.10;;
6209;SDS011;3138;52.550;13.148;2022-11-09T03:31:01;2.47;;;2.10;;
6209;SDS011;3138;52.550;13.148;2022-11-09T03:33:28;4.87;;;2.60;;
6209;SDS011;3138;52.550;13.148;2022-11-09T03:35:55;2.80;;;2.27;;
6209;SDS011;3138;52.550;13.148;2022-11-09T03:38:23;8.80;;;2.70;;
6209;SDS011;3138;52.550;13.148;2022-11-09T03:40:50;4.50;;;2.60;;
6209;SDS011;3138;52.550;13.148;2022-11-09T03:43:17;2.80;;;1.90;;
6209;SDS011;3138;52.550;13.148;2022-11-09T03:45:45;5.80;;;2.77;;
6209;SDS011;3138;52.550;13.148;2022-11-09T03:48:13;4.27;;;3.03;;
6209;SDS011;3138;52.550;13.148;2022-11-09T03:50:40;3.43;;;3.00;;
6209;SDS011;3138;52.550;13.148;2022-11-09T03:53:06;5.73;;;2.83;;
6209;SDS011;3138;52.550;13.148;2022-11-09T03:55:34;5.90;;;2.87;;
6209;SDS011;3138;52.550;13.148;2022-11-09T03:58:02;3.60;;;2.80;;
6209;SDS011;3138;52.550;13.148;2022-11-09T04:00:30;2.70;;;2.50;;
6209;SDS011;3138;52.550;13.148;2022-11-09T04:02:57;5.80;;;2.80;;
6209;SDS011;3138;52.550;13.148;2022-11-09T04:05:25;3.43;;;2.23;;
6209;SDS011;3138;52.550;13.148;2022-11-09T04:07:52;10.07;;;2.73;;
6209;SDS011;3138;52.550;13.148;2022-11-09T04:10:21;3.87;;;2.70;;
6209;SDS011;3138;52.550;13.148;2022-11-09T04:12:49;2.50;;;2.30;;
6209;SDS011;3138;52.550;13.148;2022-11-09T04:15:16;3.07;;;2.87;;
6209;SDS011;3138;52.550;13.148;2022-11-09T04:17:43;3.63;;;2.50;;
6209;SDS011;3138;52.550;13.148;2022-11-09T04:20:10;4.10;;;2.87;;
6209;SDS011;3138;52.550;13.148;2022-11-09T04:22:39;6.60;;;3.50;;
6209;SDS011;3138;52.550;13.148;2022-11-09T04:25:06;2.70;;;2.50;;
6209;SDS011;3138;52.550;13.148;2022-11-09T04:27:33;10.30;;;2.77;;
6209;SDS011;3138;52.550;13.148;2022-11-09T04:29:59;4.07;;;2.67;;
6209;SDS011;3138;52.550;13.148;2022-11-09T04:32:26;4.80;;;3.20;;
6209;SDS011;3138;52.550;13.148;2022-11-09T04:34:53;9.03;;;3.47;;
6209;SDS011;3138;52.550;13.148;2022-11-09T04:37:19;10.80;;;2.77;;
6209;SDS011;3138;52.550;13.148;2022-11-09T04:39:47;6.90;;;2.73;;
6209;SDS011;3138;52.550;13.148;2022-11-09T04:42:14;6.70;;;3.23;;
6209;SDS011;3138;52.550;13.148;2022-11-09T04:44:41;2.80;;;2.67;;
6209;SDS011;3138;52.550;13.148;2022-11-09T04:47:07;7.00;;;2.90;;
6209;SDS011;3138;52.550;13.148;2022-11-09T04:49:34;4.80;;;2.97;;
6209;SDS011;3138;52.550;13.148;2022-11-09T04:52:01;3.80;;;2.53;;
6209;SDS011;3138;52.550;13.148;2022-11-09T04:54:27;3.00;;;2.73;;
6209;SDS011;3138;52.550;13.148;2022-11-09T04:56:56;3.53;;;2.40;;
6209;SDS011;3138;52.550;13.148;2022-11-09T04:59:22;5.83;;;2.90;;
6209;SDS011;3138;52.550;13.148;2022-11-09T05:01:49;6.13;;;2.97;;
6209;SDS011;3138;52.550;13.148;2022-11-09T05:04:16;6.33;;;2.90;;
6209;SDS011;3138;52.550;13.148;2022-11-09T05:06:42;3.90;;;3.20;;
6209;SDS011;3138;52.550;13.148;2022-11-09T05:09:09;9.17;;;3.13;;
6209;SDS011;3138;52.550;13.148;2022-11-09T05:11:36;5.07;;;2.80;;
6209;SDS011;3138;52.550;13.148;2022-11-09T05:14:04;6.87;;;3.27;;
6209;SDS011;3138;52.550;13.148;2022-11-09T05:16:30;3.73;;;2.20;;
6209;SDS011;3138;52.550;13.148;2022-11-09T05:18:57;2.87;;;2.23;;
6209;SDS011;3138;52.550;13.148;2022-11-09T05:21:24;5.10;;;2.90;;
6209;SDS011;3138;52.550;13.148;2022-11-09T05:23:51;7.40;;;3.10;;
6209;SDS011;3138;52.550;13.148;2022-11-09T05:26:23;3.27;;;2.73;;
6209;SDS011;3138;52.550;13.148;2022-11-09T05:28:50;4.30;;;3.90;;
6209;SDS011;3138;52.550;13.148;2022-11-09T05:31:19;2.97;;;2.77;;
6209;SDS011;3138;52.550;13.148;2022-11-09T05:33:47;4.03;;;3.63;;
6209;SDS011;3138;52.550;13.148;2022-11-09T05:36:14;5.90;;;2.93;;
6209;SDS011;3138;52.550;13.148;2022-11-09T05:38:41;6.40;;;3.30;;
6209;SDS011;3138;52.550;13.148;2022-11-09T05:41:08;2.67;;;2.30;;
6209;SDS011;3138;52.550;13.148;2022-11-09T05:43:34;2.10;;;2.00;;
6209;SDS011;3138;52.550;13.148;2022-11-09T05:46:01;7.80;;;3.00;;
6209;SDS011;3138;52.550;13.148;2022-11-09T05:48:29;4.60;;;3.17;;
6209;SDS011;3138;52.550;13.148;2022-11-09T05:50:58;3.20;;;3.00;;
6209;SDS011;3138;52.550;13.148;2022-11-09T05:53:25;9.50;;;2.50;;
6209;SDS011;3138;52.550;13.148;2022-11-09T05:55:52;6.17;;;3.27;;
6209;SDS011;3138;52.550;13.148;2022-11-09T05:58:19;4.17;;;2.97;;
6209;SDS011;3138;52.550;13.148;2022-11-09T06:00:46;4.90;;;2.73;;
6209;SDS011;3138;52.550;13.148;2022-11-09T06:03:12;4.87;;;3.50;;
6209;SDS011;3138;52.550;13.148;2022-11-09T06:05:40;7.80;;;3.40;;
6209;SDS011;3138;52.550;13.148;2022-11-09T06:08:09;2.90;;;2.70;;
6209;SDS011;3138;52.550;13.148;2022-11-09T06:10:37;3.03;;;2.43;;
6209;SDS011;3138;52.550;13.148;2022-11-09T06:13:04;2.70;;;2.50;;
6209;SDS011;3138;52.550;13.148;2022-11-09T06:15:31;3.83;;;2.77;;
6209;SDS011;3138;52.550;13.148;2022-11-09T06:17:58;4.93;;;2.87;;
6209;SDS011;3138;52.550;13.148;2022-11-09T06:20:26;4.07;;;2.60;;
6209;SDS011;3138;52.550;13.148;2022-11-09T06:22:54;9.03;;;3.27;;
6209;SDS011;3138;52.550;13.148;2022-11-09T06:25:22;3.90;;;2.67;;
6209;SDS011;3138;52.550;13.148;2022-11-09T06:27:49;3.40;;;2.90;;
6209;SDS011;3138;52.550;13.148;2022-11-09T06:30:18;3.67;;;3.37;;
6209;SDS011;3138;52.550;13.148;2022-11-09T06:32:45;8.00;;;3.37;;
6209;SDS011;3138;52.550;13.148;2022-11-09T06:35:12;6.47;;;3.23;;
6209;SDS011;3138;52.550;13.148;2022-11-09T06:37:39;7.53;;;2.73;;
6209;SDS011;3138;52.550;13.148;2022-11-09T06:40:08;4.10;;;2.80;;
6209;SDS011;3138;52.550;13.148;2022-11-09T06:42:36;11.20;;;2.87;;
6209;SDS011;3138;52.550;13.148;2022-11-09T06:45:03;5.00;;;3.73;;
6209;SDS011;3138;52.550;13.148;2022-11-09T06:47:30;3.90;;;3.13;;
6209;SDS011;3138;52.550;13.148;2022-11-09T06:49:57;6.37;;;3.90;;
6209;SDS011;3138;52.550;13.148;2022-11-09T06:52:24;15.00;;;3.70;;
6209;SDS011;3138;52.550;13.148;2022-11-09T06:54:51;6.53;;;4.10;;
6209;SDS011;3138;52.550;13.148;2022-11-09T06:57:19;5.97;;;3.83;;
6209;SDS011;3138;52.550;13.148;2022-11-09T06:59:45;5.43;;;3.60;;
6209;SDS011;3138;52.550;13.148;2022-11-09T07:02:13;17.20;;;3.50;;
6209;SDS011;3138;52.550;13.148;2022-11-09T07:04:41;7.83;;;4.30;;
6209;SDS011;3138;52.550;13.148;2022-11-09T07:07:08;8.90;;;4.13;;
6209;SDS011;3138;52.550;13.148;2022-11-09T07:09:35;4.87;;;3.43;;
6209;SDS011;3138;52.550;13.148;2022-11-09T07:12:01;5.87;;;3.70;;
6209;SDS011;3138;52.550;13.148;2022-11-09T07:14:30;8.70;;;3.70;;
6209;SDS011;3138;52.550;13.148;2022-11-09T07:16:56;6.10;;;3.30;;
6209;SDS011;3138;52.550;13.148;2022-11-09T07:19:23;11.10;;;3.63;;
6209;SDS011;3138;52.550;13.148;2022-11-09T07:21:50;8.47;;;3.70;;
6209;SDS011;3138;52.550;13.148;2022-11-09T07:24:16;4.70;;;3.57;;
6209;SDS011;3138;52.550;13.148;2022-11-09T07:26:43;6.70;;;3.73;;
6209;SDS011;3138;52.550;13.148;2022-11-09T07:29:12;7.47;;;4.30;;
6209;SDS011;3138;52.550;13.148;2022-11-09T07:31:40;5.60;;;4.17;;
6209;SDS011;3138;52.550;13.148;2022-11-09T07:34:07;11.43;;;4.20;;
6209;SDS011;3138;52.550;13.148;2022-11-09T07:36:33;8.33;;;3.47;;
6209;SDS011;3138;52.550;13.148;2022-11-09T07:39:01;8.10;;;4.10;;
6209;SDS011;3138;52.550;13.148;2022-11-09T07:41:28;14.77;;;4.50;;
6209;SDS011;3138;52.550;13.148;2022-11-09T07:43:56;12.20;;;3.87;;
6209;SDS011;3138;52.550;13.148;2022-11-09T07:46:22;5.30;;;3.37;;
6209;SDS011;3138;52.550;13.148;2022-11-09T07:48:51;7.90;;;3.50;;
6209;SDS011;3138;52.550;13.148;2022-11-09T07:51:17;7.00;;;4.17;;
6209;SDS011;3138;52.550;13.148;2022-11-09T07:53:44;6.87;;;3.83;;
6209;SDS011;3138;52.550;13.148;2022-11-09T07:56:11;6.70;;;4.03;;
6209;SDS011;3138;52.550;13.148;2022-11-09T07:58:37;7.80;;;5.20;;
6209;SDS011;3138;52.550;13.148;2022-11-09T08:01:07;8.63;;;4.03;;
6209;SDS011;3138;52.550;13.148;2022-11-09T08:03:35;6.60;;;3.10;;
6209;SDS011;3138;52.550;13.148;2022-11-09T08:06:03;4.10;;;3.30;;
6209;SDS011;3138;52.550;13.148;2022-11-09T08:08:30;7.70;;;3.77;;
6209;SDS011;3138;52.550;13.148;2022-11-09T08:10:57;14.50;;;9.03;;
6209;SDS011;3138;52.550;13.148;2022-11-09T08:13:24;25.50;;;14.70;;
6209;SDS011;3138;52.550;13.148;2022-11-09T08:15:51;8.27;;;5.53;;
6209;SDS011;3138;52.550;13.148;2022-11-09T08:18:20;9.33;;;4.90;;
6209;SDS011;3138;52.550;13.148;2022-11-09T08:20:47;6.47;;;4.73;;
6209;SDS011;3138;52.550;13.148;2022-11-09T08:23:16;7.83;;;4.07;;
6209;SDS011;3138;52.550;13.148;2022-11-09T08:25:45;15.13;;;4.23;;
6209;SDS011;3138;52.550;13.148;2022-11-09T08:28:12;5.87;;;3.13;;
6209;SDS011;3138;52.550;13.148;2022-11-09T08:30:40;10.57;;;4.40;;
6209;SDS011;3138;52.550;13.148;2022-11-09T08:33:07;5.90;;;4.77;;
6209;SDS011;3138;52.550;13.148;2022-11-09T08:35:34;15.50;;;4.20;;
6209;SDS011;3138;52.550;13.148;2022-11-09T08:38:02;5.97;;;3.90;;
6209;SDS011;3138;52.550;13.148;2022-11-09T08:40:33;7.07;;;3.90;;
6209;SDS011;3138;52.550;13.148;2022-11-09T08:43:00;5.90;;;3.70;;
6209;SDS011;3138;52.550;13.148;2022-11-09T08:45:29;6.93;;;4.13;;
6209;SDS011;3138;52.550;13.148;2022-11-09T08:47:58;5.83;;;4.17;;
6209;SDS011;3138;52.550;13.148;2022-11-09T08:50:25;8.10;;;4.43;;
6209;SDS011;3138;52.550;13.148;2022-11-09T08:52:53;4.83;;;4.30;;
6209;SDS011;3138;52.550;13.148;2022-11-09T08:55:20;6.40;;;4.33;;
6209;SDS011;3138;52.550;13.148;2022-11-09T08:57:49;5.07;;;4.00;;
6209;SDS011;3138;52.550;13.148;2022-11-09T09:00:19;41.23;;;23.93;;
6209;SDS011;3138;52.550;13.148;2022-11-09T09:02:46;43.97;;;23.67;;
6209;SDS011;3138;52.550;13.148;2022-11-09T09:05:13;8.40;;;5.10;;
6209;SDS011;3138;52.550;13.148;2022-11-09T09:07:40;6.97;;;5.13;;
6209;SDS011;3138;52.550;13.148;2022-11-09T09:10:07;20.53;;;5.20;;
6209;SDS011;3138;52.550;13.148;2022-11-09T09:12:34;6.73;;;3.87;;
6209;SDS011;3138;52.550;13.148;2022-11-09T09:15:03;9.70;;;4.10;;
6209;SDS011;3138;52.550;13.148;2022-11-09T09:17:30;8.90;;;4.50;;
6209;SDS011;3138;52.550;13.148;2022-11-09T09:19:59;10.00;;;3.87;;
6209;SDS011;3138;52.550;13.148;2022-11-09T09:22:26;8.67;;;4.60;;
6209;SDS011;3138;52.550;13.148;2022-11-09T09:24:52;5.60;;;4.00;;
6209;SDS011;3138;52.550;13.148;2022-11-09T09:27:19;7.27;;;4.10;;
6209;SDS011;3138;52.550;13.148;2022-11-09T09:29:46;9.10;;;4.40;;
6209;SDS011;3138;52.550;13.148;2022-11-09T09:32:14;5.23;;;3.50;;
6209;SDS011;3138;52.550;13.148;2022-11-09T09:34:41;9.93;;;4.03;;
6209;SDS011;3138;52.550;13.148;2022-11-09T09:37:07;5.47;;;3.33;;
6209;SDS011;3138;52.550;13.148;2022-11-09T09:39:34;15.53;;;3.70;;
6209;SDS011;3138;52.550;13.148;2022-11-09T09:42:02;6.00;;;3.53;;
6209;SDS011;3138;52.550;13.148;2022-11-09T09:44:32;11.00;;;4.70;;
6209;SDS011;3138;52.550;13.148;2022-11-09T09:47:06;6.40;;;3.30;;
6209;SDS011;3138;52.550;13.148;2022-11-09T09:49:39;12.40;;;3.60;;
6209;SDS011;3138;52.550;13.148;2022-11-09T09:52:13;7.70;;;3.50;;
6209;SDS011;3138;52.550;13.148;2022-11-09T09:54:48;6.37;;;3.50;;
6209;SDS011;3138;52.550;13.148;2022-11-09T09:57:21;6.50;;;3.63;;
6209;SDS011;3138;52.550;13.148;2022-11-09T09:59:51;4.77;;;3.30;;
6209;SDS011;3138;52.550;13.148;2022-11-09T10:02:24;5.60;;;3.47;;
6209;SDS011;3138;52.550;13.148;2022-11-09T10:04:54;8.80;;;4.10;;
6209;SDS011;3138;52.550;13.148;2022-11-09T10:07:24;7.93;;;3.60;;
6209;SDS011;3138;52.550;13.148;2022-11-09T10:09:57;4.73;;;3.43;;
6209;SDS011;3138;52.550;13.148;2022-11-09T10:12:36;4.17;;;3.80;;
6209;SDS011;3138;52.550;13.148;2022-11-09T10:15:12;30.73;;;3.90;;
6209;SDS011;3138;52.550;13.148;2022-11-09T10:17:48;10.73;;;3.07;;
6209;SDS011;3138;52.550;13.148;2022-11-09T10:20:36;3.40;;;3.13;;
6209;SDS011;3138;52.550;13.148;2022-11-09T10:23:19;3.77;;;3.10;;
6209;SDS011;3138;52.550;13.148;2022-11-09T10:26:01;4.90;;;3.33;;
6209;SDS011;3138;52.550;13.148;2022-11-09T10:28:29;6.70;;;3.60;;
6209;SDS011;3138;52.550;13.148;2022-11-09T10:30:58;6.63;;;4.10;;
6209;SDS011;3138;52.550;13.148;2022-11-09T10:33:26;10.63;;;3.73;;
6209;SDS011;3138;52.550;13.148;2022-11-09T10:35:56;5.27;;;3.73;;
6209;SDS011;3138;52.550;13.148;2022-11-09T10:38:30;4.40;;;3.63;;
6209;SDS011;3138;52.550;13.148;2022-11-09T10:41:00;4.37;;;3.20;;
6209;SDS011;3138;52.550;13.148;2022-11-09T10:43:31;3.90;;;3.50;;
6209;SDS011;3138;52.550;13.148;2022-11-09T10:45:59;6.40;;;3.87;;
6209;SDS011;3138;52.550;13.148;2022-11-09T10:48:29;4.43;;;3.40;;
6209;SDS011;3138;52.550;13.148;2022-11-09T10:50:59;2.70;;;2.50;;
6209;SDS011;3138;52.550;13.148;2022-11-09T10:53:27;4.50;;;3.33;;
6209;SDS011;3138;52.550;13.148;2022-11-09T10:55:55;4.37;;;2.93;;
6209;SDS011;3138;52.550;13.148;2022-11-09T10:58:27;6.57;;;3.23;;
6209;SDS011;3138;52.550;13.148;2022-11-09T11:00:58;3.83;;;3.30;;
6209;SDS011;3138;52.550;13.148;2022-11-09T11:03:26;4.60;;;3.07;;
6209;SDS011;3138;52.550;13.148;2022-11-09T11:05:58;6.63;;;3.13;;
6209;SDS011;3138;52.550;13.148;2022-11-09T11:08:37;3.83;;;2.97;;
6209;SDS011;3138;52.550;13.148;2022-11-09T11:11:06;4.43;;;2.93;;
6209;SDS011;3138;52.550;13.148;2022-11-09T11:13:40;4.50;;;2.97;;
6209;SDS011;3138;52.550;13.148;2022-11-09T11:16:26;8.07;;;3.40;;
6209;SDS011;3138;52.550;13.148;2022-11-09T11:18:54;7.63;;;3.40;;
6209;SDS011;3138;52.550;13.148;2022-11-09T11:21:23;7.67;;;3.80;;
6209;SDS011;3138;52.550;13.148;2022-11-09T11:24:11;4.90;;;2.80;;
6209;SDS011;3138;52.550;13.148;2022-11-09T11:26:47;10.57;;;3.30;;
6209;SDS011;3138;52.550;13.148;2022-11-09T11:29:30;3.20;;;2.80;;
6209;SDS011;3138;52.550;13.148;2022-11-09T11:32:06;6.30;;;2.77;;
6209;SDS011;3138;52.550;13.148;2022-11-09T11:34:35;3.53;;;2.87;;
6209;SDS011;3138;52.550;13.148;2022-11-09T11:37:08;4.90;;;2.97;;
6209;SDS011;3138;52.550;13.148;2022-11-09T11:39:51;4.40;;;2.13;;
6209;SDS011;3138;52.550;13.148;2022-11-09T11:45:33;5.93;;;2.40;;
6209;SDS011;3138;52.550;13.148;2022-11-09T11:48:08;6.13;;;2.17;;
6209;SDS011;3138;52.550;13.148;2022-11-09T11:50:55;1.90;;;1.80;;
6209;SDS011;3138;52.550;13.148;2022-11-09T11:53:33;3.17;;;2.43;;
6209;SDS011;3138;52.550;13.148;2022-11-09T11:56:17;7.77;;;2.20;;
6209;SDS011;3138;52.550;13.148;2022-11-09T11:58:51;1.87;;;1.77;;
6209;SDS011;3138;52.550;13.148;2022-11-09T12:01:47;2.10;;;2.00;;
6209;SDS011;3138;52.550;13.148;2022-11-09T12:04:30;3.00;;;1.83;;
6209;SDS011;3138;52.550;13.148;2022-11-09T12:07:14;4.73;;;1.63;;
6209;SDS011;3138;52.550;13.148;2022-11-09T12:09:58;1.90;;;1.80;;
6209;SDS011;3138;52.550;13.148;2022-11-09T12:12:40;2.73;;;2.50;;
6209;SDS011;3138;52.550;13.148;2022-11-09T12:15:20;2.20;;;1.80;;
6209;SDS011;3138;52.550;13.148;2022-11-09T12:17:56;3.10;;;2.10;;
6209;SDS011;3138;52.550;13.148;2022-11-09T12:20:31;3.70;;;2.00;;
6209;SDS011;3138;52.550;13.148;2022-11-09T12:23:05;2.23;;;2.00;;
6209;SDS011;3138;52.550;13.148;2022-11-09T12:25:44;2.07;;;1.97;;
6209;SDS011;3138;52.550;13.148;2022-11-09T12:28:21;3.33;;;2.47;;
6209;SDS011;3138;52.550;13.148;2022-11-09T12:30:59;3.43;;;2.57;;
6209;SDS011;3138;52.550;13.148;2022-11-09T12:33:38;1.73;;;1.70;;
6209;SDS011;3138;52.550;13.148;2022-11-09T12:36:12;2.00;;;1.73;;
6209;SDS011;3138;52.550;13.148;2022-11-09T12:38:45;3.47;;;1.67;;
6209;SDS011;3138;52.550;13.148;2022-11-09T12:41:21;1.43;;;1.40;;
6209;SDS011;3138;52.550;13.148;2022-11-09T12:43:54;3.37;;;1.40;;
6209;SDS011;3138;52.550;13.148;2022-11-09T12:46:26;2.00;;;1.60;;
6209;SDS011;3138;52.550;13.148;2022-11-09T12:48:57;5.83;;;1.63;;
6209;SDS011;3138;52.550;13.148;2022-11-09T12:51:27;3.73;;;1.80;;
6209;SDS011;3138;52.550;13.148;2022-11-09T12:53:55;7.30;;;2.10;;
6209;SDS011;3138;52.550;13.148;2022-11-09T12:56:26;4.13;;;1.20;;
6209;SDS011;3138;52.550;13.148;2022-11-09T13:02:01;5.10;;;1.13;;
6209;SDS011;3138;52.550;13.148;2022-11-09T13:04:29;4.87;;;1.60;;
6209;SDS011;3138;52.550;13.148;2022-11-09T13:09:43;4.50;;;1.40;;
6209;SDS011;3138;52.550;13.148;2022-11-09T13:12:25;5.77;;;1.50;;
6209;SDS011;3138;52.550;13.148;2022-11-09T13:15:09;4.83;;;1.50;;
6209;SDS011;3138;52.550;13.148;2022-11-09T13:17:58;1.47;;;1.40;;
6209;SDS011;3138;52.550;13.148;2022-11-09T13:23:28;1.50;;;1.40;;
6209;SDS011;3138;52.550;13.148;2022-11-09T13:25:57;1.60;;;1.10;;
6209;SDS011;3138;52.550;13.148;2022-11-09T13:28:48;3.67;;;1.70;;
6209;SDS011;3138;52.550;13.148;2022-11-09T13:34:40;1.90;;;1.80;;
6209;SDS011;3138;52.550;13.148;2022-11-09T13:40:01;3.73;;;1.60;;
6209;SDS011;3138;52.550;13.148;2022-11-09T13:42:43;1.43;;;1.33;;
6209;SDS011;3138;52.550;13.148;2022-11-09T13:45:32;9.13;;;1.63;;
6209;SDS011;3138;52.550;13.148;2022-11-09T13:48:01;3.13;;;1.60;;
6209;SDS011;3138;52.550;13.148;2022-11-09T13:50:30;1.60;;;1.40;;
6209;SDS011;3138;52.550;13.148;2022-11-09T13:52:59;4.10;;;2.40;;
6209;SDS011;3138;52.550;13.148;2022-11-09T13:55:31;3.57;;;1.60;;
6209;SDS011;3138;52.550;13.148;2022-11-09T13:58:02;1.60;;;1.50;;
6209;SDS011;3138;52.550;13.148;2022-11-09T14:00:36;1.53;;;1.43;;
6209;SDS011;3138;52.550;13.148;2022-11-09T14:03:12;3.03;;;1.87;;
6209;SDS011;3138;52.550;13.148;2022-11-09T14:05:43;4.33;;;1.90;;
6209;SDS011;3138;52.550;13.148;2022-11-09T14:08:13;3.63;;;1.87;;
6209;SDS011;3138;52.550;13.148;2022-11-09T14:10:49;2.50;;;1.83;;
6209;SDS011;3138;52.550;13.148;2022-11-09T14:13:31;1.50;;;1.40;;
6209;SDS011;3138;52.550;13.148;2022-11-09T14:16:11;1.80;;;1.70;;
6209;SDS011;3138;52.550;13.148;2022-11-09T14:18:49;3.23;;;1.87;;
6209;SDS011;3138;52.550;13.148;2022-11-09T14:21:27;1.90;;;1.80;;
6209;SDS011;3138;52.550;13.148;2022-11-09T14:24:02;4.87;;;2.57;;
6209;SDS011;3138;52.550;13.148;2022-11-09T14:29:36;3.90;;;2.00;;
6209;SDS011;3138;52.550;13.148;2022-11-09T14:32:30;1.87;;;1.70;;
6209;SDS011;3138;52.550;13.148;2022-11-09T14:35:09;2.20;;;2.00;;
6209;SDS011;3138;52.550;13.148;2022-11-09T14:37:41;2.03;;;1.83;;
6209;SDS011;3138;52.550;13.148;2022-11-09T14:40:14;2.00;;;1.90;;
6209;SDS011;3138;52.550;13.148;2022-11-09T14:42:45;2.27;;;1.70;;
6209;SDS011;3138;52.550;13.148;2022-11-09T14:45:13;6.23;;;1.80;;
6209;SDS011;3138;52.550;13.148;2022-11-09T14:47:43;2.00;;;1.90;;
6209;SDS011;3138;52.550;13.148;2022-11-09T14:50:14;1.70;;;1.50;;
6209;SDS011;3138;52.550;13.148;2022-11-09T14:52:44;1.73;;;1.73;;
6209;SDS011;3138;52.550;13.148;2022-11-09T14:55:12;6.23;;;1.70;;
6209;SDS011;3138;52.550;13.148;2022-11-09T14:57:40;4.63;;;1.70;;
6209;SDS011;3138;52.550;13.148;2022-11-09T15:00:21;3.73;;;2.07;;
6209;SDS011;3138;52.550;13.148;2022-11-09T15:02:54;1.80;;;1.70;;
6209;SDS011;3138;52.550;13.148;2022-11-09T15:05:29;3.27;;;2.97;;
6209;SDS011;3138;52.550;13.148;2022-11-09T15:07:58;4.40;;;2.70;;
6209;SDS011;3138;52.550;13.148;2022-11-09T15:10:26;3.63;;;2.50;;
6209;SDS011;3138;52.550;13.148;2022-11-09T15:12:58;8.87;;;3.00;;
6209;SDS011;3138;52.550;13.148;2022-11-09T15:15:27;4.10;;;2.87;;
6209;SDS011;3138;52.550;13.148;2022-11-09T15:17:56;5.87;;;2.70;;
6209;SDS011;3138;52.550;13.148;2022-11-09T15:20:25;2.50;;;2.20;;
6209;SDS011;3138;52.550;13.148;2022-11-09T15:22:58;3.50;;;2.40;;
6209;SDS011;3138;52.550;13.148;2022-11-09T15:25:28;3.17;;;2.80;;
6209;SDS011;3138;52.550;13.148;2022-11-09T15:27:59;4.47;;;2.83;;
6209;SDS011;3138;52.550;13.148;2022-11-09T15:30:41;7.53;;;3.07;;
6209;SDS011;3138;52.550;13.148;2022-11-09T15:33:14;3.90;;;2.87;;
6209;SDS011;3138;52.550;13.148;2022-11-09T15:35:48;11.30;;;5.40;;
6209;SDS011;3138;52.550;13.148;2022-11-09T15:38:29;5.30;;;4.03;;